createdAt,value
2022-09-05T00:02:00.284Z,466.0339
2022-09-05T00:07:02.238Z,444.81301
2022-09-05T00:12:03.867Z,393.63504
2022-09-05T00:17:05.493Z,403.70149
2022-09-05T00:24:28.685Z,400.2963
2022-09-05T00:31:08.222Z,407.15789
2022-09-05T00:36:54.944Z,417.84615
2022-09-05T00:41:57.137Z,417.84615
2022-09-05T00:46:59.503Z,453.09091
2022-09-05T00:52:01.742Z,410.66667
2022-09-05T00:57:03.716Z,407.15789
2022-09-05T01:02:06.273Z,387.16547
2022-09-05T01:07:08.668Z,284.33149
2022-09-05T01:12:10.735Z,310.66667
2022-09-05T01:17:12.372Z,280.61202
2022-09-05T01:22:14.451Z,259.89744
2022-09-05T01:27:16.113Z,229.18519
2022-09-05T01:32:17.579Z,195.42857
2022-09-05T01:37:32.843Z,173.85075
2022-09-05T01:42:36.404Z,184.625
2022-09-05T01:47:38.283Z,380.87943
2022-09-05T01:52:57.421Z,514.37037
2022-09-05T01:58:03.141Z,525.13208
2022-09-05T02:03:04.625Z,553.90099
2022-09-05T02:08:06.624Z,525.13208
2022-09-05T02:13:08.661Z,525.13208
2022-09-05T02:18:10.263Z,686.16867
2022-09-05T02:23:25.985Z,660.27907
2022-09-05T02:28:44.666Z,606.36559
2022-09-05T02:33:46.430Z,606.36559
2022-09-05T02:41:55.597Z,592.42105
2022-09-05T02:54:14.296Z,282.46154
2022-09-05T03:02:34.600Z,324.24691
2022-09-05T03:07:36.374Z,363.04762
2022-09-05T03:12:38.374Z,377.80282
2022-09-05T03:17:40.175Z,310.66667
2022-09-05T03:22:42.355Z,219
2022-09-05T03:27:44.215Z,247.44828
2022-09-05T03:32:46.174Z,247.44828
2022-09-05T03:37:47.982Z,199.60166
2022-09-05T03:42:49.553Z,196.45902
2022-09-05T03:47:52.137Z,220.23318
2022-09-05T03:57:18.178Z,271.65957
2022-09-05T04:08:09.442Z,266.51309
2022-09-05T04:13:31.789Z,227.87097
2022-09-05T04:18:34.153Z,250.46766
2022-09-05T04:23:36.303Z,193.39271
2022-09-05T04:28:38.057Z,212.99563
2022-09-05T04:33:43.365Z,168
2022-09-05T04:38:45.151Z,164.78853
2022-09-05T04:43:46.938Z,160.14035
2022-09-05T04:48:48.662Z,162.43972
2022-09-05T04:53:50.720Z,169.64103
2022-09-05T05:00:08.953Z,189.41833
2022-09-05T05:17:38.451Z,208.37768
2022-09-05T05:23:19.177Z,233.20188
2022-09-05T05:28:25.007Z,216.56637
2022-09-05T05:33:27.115Z,206.12766
2022-09-05T05:38:29.203Z,229.18519
2022-09-05T05:43:31.040Z,215.36564
2022-09-05T05:48:33.783Z,233.20188
2022-09-05T05:53:43.954Z,253.54774
2022-09-05T05:58:47.160Z,245.96078
2022-09-05T06:03:49.061Z,276.97297
2022-09-05T06:12:24.725Z,321.91411
2022-09-05T06:21:51.112Z,374.76923
2022-09-05T06:27:10.143Z,374.76923
2022-09-05T06:32:12.492Z,425.25
2022-09-05T06:37:16.587Z,484.35088
2022-09-05T06:42:42.209Z,644
2022-09-05T06:47:45.261Z,606.36559
2022-09-05T06:52:47.326Z,606.36559
2022-09-05T06:57:49.132Z,620.92308
2022-09-05T07:02:59.003Z,644
2022-09-05T07:08:13.579Z,599.31915
2022-09-05T07:13:44.530Z,652.04598
2022-09-05T07:18:46.588Z,592.42105
2022-09-05T07:24:06.221Z,628.44444
2022-09-05T07:29:12.471Z,585.66667
2022-09-05T07:34:21.074Z,628.44444
2022-09-05T07:39:28.733Z,553.90099
2022-09-05T07:44:30.801Z,636.13483
2022-09-05T07:49:32.442Z,765.33333
2022-09-05T07:57:04.126Z,877.33333
2022-09-05T08:02:13.784Z,1006.06897
2022-09-05T08:07:48.192Z,921.77778
2022-09-05T08:13:24.400Z,937.54839
2022-09-05T08:18:37.252Z,877.33333
2022-09-05T08:23:39.039Z,799.55556
2022-09-05T08:28:40.799Z,824
2022-09-05T08:33:42.783Z,937.54839
2022-09-05T08:38:45.590Z,1084.74074
2022-09-05T08:46:44.008Z,1176
2022-09-05T08:51:54.277Z,1410.66667
2022-09-05T08:56:56.753Z,1227.33333
2022-09-05T09:02:14.348Z,1376.55814
2022-09-05T09:07:52.168Z,1410.66667
2022-09-05T09:12:54.044Z,1484
2022-09-05T09:17:55.680Z,1565.05263
2022-09-05T09:22:57.181Z,1484
2022-09-05T09:28:49.856Z,1484
2022-09-05T09:33:53.324Z,1410.66667
2022-09-05T09:38:54.953Z,1565.05263
2022-09-05T09:43:56.824Z,1484
2022-09-05T09:48:58.289Z,1484
2022-09-05T09:53:59.779Z,1523.48718
2022-09-05T09:59:01.220Z,1704
2022-09-05T10:10:14.943Z,1565.05263
2022-09-05T10:15:58.516Z,1344
2022-09-05T10:21:15.367Z,1227.33333
2022-09-05T10:26:19.806Z,1410.66667
2022-09-05T10:33:09.118Z,1128.61538
2022-09-05T10:40:13.735Z,1344
2022-09-05T10:45:15.856Z,1565.05263
2022-09-05T10:50:17.974Z,1484
2022-09-05T10:55:19.873Z,1410.66667
2022-09-05T11:02:20.635Z,1410.66667
2022-09-05T11:07:29.382Z,1523.48718
2022-09-05T11:12:31.489Z,1565.05263
2022-09-05T11:17:33.199Z,1655.11111
2022-09-05T11:22:35.770Z,1997.33333
2022-09-05T11:27:37.308Z,1810.66667
2022-09-05T11:39:45.536Z,2225.48148
2022-09-05T11:45:13.805Z,2144
2022-09-05T11:50:15.542Z,2144
2022-09-05T11:55:20.645Z,2144
2022-09-05T12:00:33.818Z,2225.48148
2022-09-05T12:05:48.817Z,2313.23077
2022-09-05T12:10:52.735Z,2225.48148
2022-09-05T12:16:07.672Z,2068.13793
2022-09-05T12:21:14.415Z,2510.66667
2022-09-05T12:27:40.546Z,2313.23077
2022-09-05T12:36:04.010Z,1931.09677
2022-09-05T12:41:43.038Z,1410.66667
2022-09-05T12:46:50.565Z,1484
2022-09-05T12:51:52.398Z,1565.05263
2022-09-05T13:02:41.936Z,1755.76471
2022-09-05T13:08:17.805Z,1997.33333
2022-09-05T13:14:52.691Z,1869
2022-09-05T13:20:07.460Z,1523.48718
2022-09-05T13:25:09.078Z,1931.09677
2022-09-05T13:31:24.876Z,2068.13793
2022-09-05T13:41:27.424Z,1869
2022-09-05T13:46:29.721Z,1704
2022-09-05T13:51:31.462Z,1655.11111
2022-09-05T13:56:33.054Z,1810.66667
2022-09-05T14:01:35.414Z,1931.09677
2022-09-05T14:06:47.762Z,1755.76471
2022-09-05T14:11:50.238Z,1376.55814
2022-09-05T14:16:54.414Z,1176
2022-09-05T14:21:56.149Z,1484
2022-09-05T14:26:57.942Z,1344
2022-09-05T14:37:37.453Z,1151.84314
2022-09-05T14:42:59.106Z,1283.13043
2022-09-05T14:48:02.457Z,1410.66667
2022-09-05T15:02:53.743Z,1410.66667
2022-09-05T15:08:01.928Z,1484
2022-09-05T15:13:04.200Z,1106.26415
2022-09-05T15:18:06.241Z,1024.70175
2022-09-05T15:23:16.914Z,1201.14286
2022-09-05T15:28:19.088Z,988.0678
2022-09-05T15:33:25.297Z,811.60563
2022-09-05T15:38:28.054Z,553.90099
2022-09-05T15:43:29.780Z,695.21951
2022-09-05T15:48:34.686Z,620.92308
2022-09-05T15:53:36.856Z,560
2022-09-05T15:58:53.649Z,519.70093
2022-09-05T16:10:26.723Z,585.66667
2022-09-05T16:19:44.616Z,542.05825
2022-09-05T16:28:37.960Z,432.88889
2022-09-05T16:33:39.839Z,560
2022-09-05T16:38:49.547Z,628.44444
2022-09-05T16:43:52.456Z,744
2022-09-05T16:48:55.089Z,733.74359
2022-09-05T16:53:59.071Z,566.22222
2022-09-05T16:59:01.308Z,530.66667
2022-09-05T17:04:02.868Z,566.22222
2022-09-05T17:09:13.112Z,536.30769
2022-09-05T17:14:15.301Z,613.56522
2022-09-05T17:19:16.998Z,744
2022-09-05T17:29:17.406Z,723.74684
2022-09-05T17:34:39.842Z,489.13274
2022-09-05T17:39:45.036Z,421.51938
2022-09-05T17:44:47.349Z,470.49573
2022-09-05T17:55:05.199Z,542.05825
2022-09-05T18:00:11.918Z,514.37037
2022-09-05T18:05:14.347Z,530.66667
2022-09-05T18:35:37.093Z,592.42105
2022-09-05T18:40:39.845Z,553.90099
2022-09-05T18:45:52.150Z,572.57143
2022-09-05T18:51:13.050Z,686.16867
2022-09-05T18:56:20.706Z,714
2022-09-05T19:01:22.926Z,776.43243
2022-09-05T19:06:36.633Z,733.74359
2022-09-05T19:11:53.311Z,723.74684
2022-09-05T19:16:56.007Z,704.49383
2022-09-05T19:22:48.589Z,733.74359
2022-09-05T19:33:31.352Z,704.49383
2022-09-05T19:47:28.857Z,765.33333
2022-09-05T19:52:48.237Z,290.06742
2022-09-05T19:58:05.282Z,304.23392
2022-09-05T20:03:21.909Z,371.77778
2022-09-05T20:08:23.710Z,400.2963
2022-09-05T20:13:25.708Z,324.24691
2022-09-05T20:18:27.942Z,296
2022-09-05T20:23:30.069Z,250.46766
2022-09-05T20:28:32.032Z,240.15385
2022-09-05T20:33:33.814Z,231.85047
2022-09-05T20:43:23.462Z,192.3871
2022-09-05T20:54:04.755Z,176.45283
2022-09-05T20:59:13.080Z,181.83784
2022-09-05T21:04:14.548Z,173.85075
2022-09-05T21:09:22.478Z,160.90141
2022-09-05T21:14:26.283Z,160.14035
2022-09-05T21:19:28.281Z,180.01533
2022-09-05T21:24:29.971Z,217.77778
2022-09-05T21:29:33.279Z,231.85047
2022-09-05T21:34:35.438Z,250.46766
2022-09-05T21:39:37.237Z,238.73684
2022-09-05T21:47:49.983Z,230.51163
2022-09-05T21:53:04.162Z,233.20188
2022-09-05T21:59:21.903Z,233.20188
2022-09-05T22:04:33.112Z,220.23318
2022-09-05T22:09:42.765Z,250.46766
2022-09-05T22:14:44.189Z,268.21053
2022-09-05T22:19:45.835Z,255.11111
2022-09-05T22:24:47.532Z,255.11111
2022-09-05T22:29:50.831Z,264.83333
2022-09-05T22:34:52.887Z,263.17098
2022-09-05T22:39:54.673Z,275.1828
2022-09-05T22:44:56.412Z,288.13408
2022-09-05T22:49:57.896Z,286.22222
2022-09-05T22:54:59.811Z,271.65957
2022-09-05T23:00:01.342Z,288.13408
2022-09-05T23:05:02.864Z,284.33149
2022-09-05T23:10:04.478Z,266.51309
2022-09-05T23:15:06.398Z,263.17098
2022-09-05T23:20:08.142Z,247.44828
2022-09-05T23:25:10.093Z,259.89744
2022-09-05T23:30:11.515Z,245.96078
2022-09-05T23:35:13.538Z,234.56604
2022-09-05T23:40:15.010Z,240.15385
2022-09-05T23:45:16.789Z,245.96078
2022-09-05T23:50:18.768Z,253.54774
2022-09-05T23:55:20.870Z,253.54774
